CheckWX is a tool to help pilots better visualize weather data.  It is not intended as a substitute for an official pre-flight weather briefing.

21:53:04 UTC

EDMA METAR
Augsburg Airport
Augsburg, Germany
Current

33 mins ago

EDMA 082120Z AUTO 32003KT 280V350 9999 // NCD 07/04 Q1023
Observed
Apr-8 @ 21:20 UTC
Wind
  • 320° at 3 KTS
Visibility
10,000+ meters
Flight Rules
VFR
Cloud Levels
  • Clear skies
Temperature
C / 45°F
Dewpoint
C / 39°F
Humidity
81%
Altimeter
30.21" Hg
Pressure
1022.92 hPa
Previous

1 hour ago

EDMA 082050Z AUTO 10003KT 9999 // NCD 09/04 Q1023
Observed
Apr-8 @ 20:50 UTC
Wind
  • 100° at 3 KTS
Visibility
10,000+ meters
Flight Rules
VFR
Cloud Levels
  • Clear skies
Temperature
C / 48°F
Dewpoint
C / 39°F
Humidity
71%
Altimeter
30.21" Hg
Pressure
1022.92 hPa
Previous

2 hours ago

EDMA 082020Z AUTO 09003KT 020V110 9999 // NCD 08/04 Q1023
Observed
Apr-8 @ 20:20 UTC
Wind
  • 090° at 3 KTS
Visibility
10,000+ meters
Flight Rules
VFR
Cloud Levels
  • Clear skies
Temperature
C / 46°F
Dewpoint
C / 39°F
Humidity
76%
Altimeter
30.21" Hg
Pressure
1022.92 hPa